Time,TemperatureF,DewpointF,PressureIn,WindDirection,WindDirectionDegrees,WindSpeedMPH,WindSpeedGustMPH,Humidity,HourlyPrecipIn,Conditions,Clouds,dailyrainin,SoftwareType,DateUTC
2017-12-12 00:03:00,45.0,24.4,29.75,NW,315,0.0,0.0,44,0.00,,FEW120,0.00,VWS V14.01,2017-12-12 05:03:00,
2017-12-12 00:18:00,44.6,24.6,29.75,North,0,0.0,0.0,45,0.00,,FEW120,0.00,VWS V14.01,2017-12-12 05:18:00,
2017-12-12 00:23:00,44.2,25.3,29.75,NE,45,0.0,0.0,47,0.00,,FEW120,0.00,VWS V14.01,2017-12-12 05:23:00,
2017-12-12 00:33:00,43.5,24.1,29.75,NNW,338,0.0,0.0,46,0.00,,FEW120,0.00,VWS V14.01,2017-12-12 05:33:00,
2017-12-12 00:38:00,42.8,24.5,29.75,NNE,22,0.0,0.0,48,0.00,,FEW120,0.00,VWS V14.01,2017-12-12 05:38:00,
2017-12-12 00:43:00,43.0,24.6,29.75,North,0,0.0,0.0,48,0.00,,FEW120,0.00,VWS V14.01,2017-12-12 05:43:00,
2017-12-12 00:53:00,40.6,23.5,29.75,NNW,338,0.0,0.0,50,0.00,,FEW120,0.00,VWS V14.01,2017-12-12 05:53:00,
2017-12-12 01:03:00,39.9,24.2,29.75,North,0,0.0,0.0,53,0.00,,CLR,0.00,VWS V14.01,2017-12-12 06:03:00,
2017-12-12 01:08:00,39.9,24.6,29.75,North,0,0.0,0.0,54,0.00,,CLR,0.00,VWS V14.01,2017-12-12 06:08:00,
2017-12-12 01:13:00,39.4,25.0,29.75,North,0,0.0,0.0,56,0.00,,CLR,0.00,VWS V14.01,2017-12-12 06:13:00,
2017-12-12 01:23:00,39.4,25.0,29.75,NNW,338,0.0,0.0,56,0.00,,CLR,0.00,VWS V14.01,2017-12-12 06:23:00,
2017-12-12 01:28:00,38.8,24.9,29.75,North,0,0.0,0.0,57,0.00,,CLR,0.00,VWS V14.01,2017-12-12 06:28:00,
2017-12-12 01:33:00,38.5,24.2,29.72,NNE,22,0.0,0.0,56,0.00,,CLR,0.00,VWS V14.01,2017-12-12 06:33:00,
2017-12-12 01:38:00,38.7,24.3,29.72,North,0,0.0,0.0,56,0.00,,CLR,0.00,VWS V14.01,2017-12-12 06:38:00,
2017-12-12 01:43:00,38.7,24.3,29.72,NNW,338,0.0,0.0,56,0.00,,CLR,0.00,VWS V14.01,2017-12-12 06:43:00,
2017-12-12 01:53:00,38.7,24.8,29.72,NNE,22,0.0,0.0,57,0.00,,CLR,0.00,VWS V14.01,2017-12-12 06:53:00,
2017-12-12 01:58:00,37.8,23.9,29.72,West,270,0.0,0.0,57,0.00,,CLR,0.00,VWS V14.01,2017-12-12 06:58:00,
2017-12-12 02:03:00,38.5,24.6,29.72,NW,315,0.0,0.0,57,0.00,,CLR,0.00,VWS V14.01,2017-12-12 07:03:00,
2017-12-12 02:18:00,38.1,24.7,29.72,NNW,338,0.0,0.0,58,0.00,,CLR,0.00,VWS V14.01,2017-12-12 07:18:00,
2017-12-12 02:23:00,37.0,24.1,29.72,North,0,0.0,0.0,59,0.00,,CLR,0.00,VWS V14.01,2017-12-12 07:23:00,
2017-12-12 02:28:00,36.7,23.3,29.72,North,0,0.0,0.0,58,0.00,,CLR,0.00,VWS V14.01,2017-12-12 07:28:00,
2017-12-12 02:33:00,36.0,23.0,29.72,NE,45,0.0,0.0,59,0.00,,CLR,0.00,VWS V14.01,2017-12-12 07:33:00,
2017-12-12 02:38:00,35.6,22.7,29.72,NE,45,0.0,0.0,59,0.00,,CLR,0.00,VWS V14.01,2017-12-12 07:38:00,
2017-12-12 02:43:00,35.1,23.0,29.72,North,0,0.0,0.0,61,0.00,,CLR,0.00,VWS V14.01,2017-12-12 07:43:00,
2017-12-12 02:48:00,34.9,23.2,29.72,North,0,0.0,0.0,62,0.00,,CLR,0.00,VWS V14.01,2017-12-12 07:48:00,
2017-12-12 02:58:00,34.3,23.1,29.72,NNW,338,0.0,0.0,63,0.00,,CLR,0.00,VWS V14.01,2017-12-12 07:58:00,
2017-12-12 03:03:00,34.0,24.2,29.72,NW,315,0.0,0.0,67,0.00,,CLR,0.00,VWS V14.01,2017-12-12 08:03:00,
2017-12-12 03:08:00,34.0,24.2,29.72,North,0,0.0,0.0,67,0.00,,CLR,0.00,VWS V14.01,2017-12-12 08:08:00,
2017-12-12 03:13:00,33.8,24.7,29.72,North,0,0.0,0.0,69,0.00,,CLR,0.00,VWS V14.01,2017-12-12 08:13:00,
2017-12-12 03:33:00,37.0,26.8,29.72,North,0,0.0,0.0,66,0.00,,CLR,0.00,VWS V14.01,2017-12-12 08:33:00,
2017-12-12 03:38:00,39.2,26.9,29.72,North,0,7.6,12.8,61,0.00,,CLR,0.00,VWS V14.01,2017-12-12 08:38:00,
2017-12-12 03:43:00,40.6,27.9,29.72,ENE,68,0.0,0.0,60,0.00,,CLR,0.00,VWS V14.01,2017-12-12 08:43:00,
2017-12-12 03:48:00,41.4,28.1,29.72,NE,45,0.0,0.0,59,0.00,,CLR,0.00,VWS V14.01,2017-12-12 08:48:00,
2017-12-12 04:08:00,43.9,26.9,29.72,ENE,68,10.3,15.2,51,0.00,,CLR,0.00,VWS V14.01,2017-12-12 09:08:00,
2017-12-12 04:13:00,44.2,27.3,29.72,NNE,22,0.0,0.0,51,0.00,,CLR,0.00,VWS V14.01,2017-12-12 09:13:00,
2017-12-12 04:18:00,44.1,26.6,29.69,South,180,0.0,0.0,50,0.00,,CLR,0.00,VWS V14.01,2017-12-12 09:18:00,
2017-12-12 04:24:00,43.9,26.9,29.69,NE,45,0.0,0.0,51,0.00,,CLR,0.00,VWS V14.01,2017-12-12 09:24:00,
2017-12-12 04:29:00,43.9,26.0,29.69,NNE,22,0.0,0.0,49,0.00,,CLR,0.00,VWS V14.01,2017-12-12 09:29:00,
2017-12-12 04:34:00,43.7,26.3,29.69,South,180,0.0,0.0,50,0.00,,CLR,0.00,VWS V14.01,2017-12-12 09:34:00,
2017-12-12 04:39:00,43.5,25.6,29.69,East,90,0.0,4.9,49,0.00,,CLR,0.00,VWS V14.01,2017-12-12 09:39:00,
2017-12-12 04:49:00,43.5,25.6,29.69,NE,45,0.0,2.5,49,0.00,,CLR,0.00,VWS V14.01,2017-12-12 09:49:00,
2017-12-12 04:54:00,43.3,25.5,29.69,SE,135,0.0,0.0,49,0.00,,CLR,0.00,VWS V14.01,2017-12-12 09:54:00,
2017-12-12 04:59:00,43.2,25.3,29.69,North,0,0.0,4.9,49,0.00,,CLR,0.00,VWS V14.01,2017-12-12 09:59:00,
2017-12-12 05:09:00,43.0,25.1,29.69,ENE,68,0.0,0.0,49,0.00,,FEW055,0.00,VWS V14.01,2017-12-12 10:09:00,
2017-12-12 05:14:00,42.8,25.0,29.69,SSE,158,0.0,0.0,49,0.00,,FEW055,0.00,VWS V14.01,2017-12-12 10:14:00,
2017-12-12 05:19:00,42.6,25.3,29.69,SE,135,8.1,8.1,50,0.00,,FEW055,0.00,VWS V14.01,2017-12-12 10:19:00,
2017-12-12 05:24:00,42.6,25.3,29.69,South,180,0.0,3.8,50,0.00,,FEW055,0.00,VWS V14.01,2017-12-12 10:24:00,
2017-12-12 05:34:00,42.1,24.8,29.69,NE,45,0.0,2.9,50,0.00,,FEW055,0.00,VWS V14.01,2017-12-12 10:34:00,
2017-12-12 05:38:00,42.1,24.8,29.69,SE,135,0.0,9.4,50,0.00,,FEW055,0.00,VWS V14.01,2017-12-12 10:38:00,
2017-12-12 05:43:00,41.9,24.6,29.69,NE,45,3.6,5.6,50,0.00,,FEW055,0.00,VWS V14.01,2017-12-12 10:43:00,
2017-12-12 05:53:00,41.7,24.5,29.72,ESE,112,4.0,12.8,50,0.00,,FEW055,0.00,VWS V14.01,2017-12-12 10:53:00,
2017-12-12 06:03:00,41.4,24.1,29.69,East,90,0.0,5.8,50,0.00,,SCT055,0.00,VWS V14.01,2017-12-12 11:03:00,
2017-12-12 06:04:00,41.4,24.1,29.69,East,90,0.0,5.8,50,0.00,,SCT055,0.00,VWS V14.01,2017-12-12 11:04:00,
2017-12-12 06:09:00,41.2,24.0,29.69,NNE,22,0.0,7.8,50,0.00,,SCT055,0.00,VWS V14.01,2017-12-12 11:09:00,
2017-12-12 06:14:00,41.0,23.8,29.69,NNW,338,6.0,8.7,50,0.00,,SCT055,0.00,VWS V14.01,2017-12-12 11:14:00,
2017-12-12 06:19:00,40.8,23.6,29.69,NE,45,0.0,12.5,50,0.00,,SCT055,0.00,VWS V14.01,2017-12-12 11:19:00,
2017-12-12 06:24:00,40.5,23.3,29.69,NW,315,0.0,0.0,50,0.00,,SCT055,0.00,VWS V14.01,2017-12-12 11:24:00,
2017-12-12 06:49:00,39.9,23.3,29.72,East,90,0.0,5.8,51,0.00,,SCT055,0.00,VWS V14.01,2017-12-12 11:49:00,
2017-12-12 06:54:00,39.7,23.1,29.72,ESE,112,0.0,0.9,51,0.00,,SCT055,0.00,VWS V14.01,2017-12-12 11:54:00,
2017-12-12 06:59:00,39.7,23.6,29.72,North,0,0.0,5.6,52,0.00,,SCT055,0.00,VWS V14.01,2017-12-12 11:59:00,
2017-12-12 07:04:00,39.6,23.4,29.72,ENE,68,0.0,0.0,52,0.00,,BKN038,0.00,VWS V14.01,2017-12-12 12:04:00,
2017-12-12 07:08:00,39.6,23.4,29.72,North,0,0.0,0.0,52,0.00,,BKN038,0.00,VWS V14.01,2017-12-12 12:08:00,
2017-12-12 07:13:00,39.4,23.2,29.72,NNE,22,0.0,0.0,52,0.00,,BKN038,0.00,VWS V14.01,2017-12-12 12:13:00,
2017-12-12 07:18:00,39.4,23.2,29.72,SW,225,0.0,0.0,52,0.00,,BKN038,0.00,VWS V14.01,2017-12-12 12:18:00,
2017-12-12 07:28:00,39.4,23.2,29.72,East,90,0.0,1.6,52,0.00,,BKN038,0.00,VWS V14.01,2017-12-12 12:28:00,
2017-12-12 07:33:00,39.4,23.2,29.72,South,180,0.0,0.0,52,0.00,,BKN038,0.00,VWS V14.01,2017-12-12 12:33:00,
2017-12-12 07:43:00,39.2,23.5,29.72,ENE,68,0.0,0.0,53,0.00,,BKN038,0.00,VWS V14.01,2017-12-12 12:43:00,
2017-12-12 07:50:00,39.2,23.5,29.72,SSW,202,0.0,0.9,53,0.00,,BKN038,0.00,VWS V14.01,2017-12-12 12:50:00,
2017-12-12 07:55:00,39.2,23.5,29.72,NE,45,0.0,0.9,53,0.00,,BKN038,0.00,VWS V14.01,2017-12-12 12:55:00,
2017-12-12 08:00:00,39.0,23.4,29.72,East,90,0.0,0.0,53,0.00,,OVC045,0.00,VWS V14.01,2017-12-12 13:00:00,
2017-12-12 08:10:00,39.0,23.8,29.72,North,0,0.0,2.9,54,0.00,,OVC045,0.00,VWS V14.01,2017-12-12 13:10:00,
2017-12-12 08:15:00,38.8,23.6,29.72,ENE,68,0.0,0.0,54,0.00,,OVC045,0.00,VWS V14.01,2017-12-12 13:15:00,
2017-12-12 08:25:00,38.5,23.7,29.72,ESE,112,0.0,5.6,55,0.00,,OVC045,0.00,VWS V14.01,2017-12-12 13:25:00,
2017-12-12 08:30:00,38.5,23.7,29.72,SSE,158,1.1,3.8,55,0.00,,OVC045,0.00,VWS V14.01,2017-12-12 13:30:00,
2017-12-12 08:35:00,38.5,23.7,29.72,East,90,0.0,0.0,55,0.00,,OVC045,0.00,VWS V14.01,2017-12-12 13:35:00,
2017-12-12 08:55:00,37.9,23.7,29.75,East,90,2.7,3.4,56,0.00,,OVC045,0.00,VWS V14.01,2017-12-12 13:55:00,
2017-12-12 09:00:00,37.6,23.3,29.75,East,90,0.0,0.0,56,0.00,,OVC028,0.00,VWS V14.01,2017-12-12 14:00:00,
2017-12-12 09:05:00,37.4,23.6,29.75,NNW,338,0.0,1.6,57,0.00,,OVC028,0.00,VWS V14.01,2017-12-12 14:05:00,
2017-12-12 09:15:00,37.2,24.2,29.75,SSE,158,0.0,3.4,59,0.00,,OVC028,0.00,VWS V14.01,2017-12-12 14:15:00,
2017-12-12 09:21:00,37.0,24.5,29.75,South,180,0.0,5.6,60,0.00,,OVC028,0.00,VWS V14.01,2017-12-12 14:21:00,
2017-12-12 09:26:00,36.7,25.3,29.75,SE,135,0.0,1.1,63,0.00,,OVC028,0.00,VWS V14.01,2017-12-12 14:26:00,
2017-12-12 09:46:00,36.0,25.4,29.75,SSE,158,0.0,0.0,65,0.00,,OVC028,0.00,VWS V14.01,2017-12-12 14:46:00,
2017-12-12 09:56:00,35.6,25.4,29.75,WNW,292,0.0,0.0,66,0.00,,OVC028,0.00,VWS V14.01,2017-12-12 14:56:00,
2017-12-12 10:01:00,35.4,24.8,29.75,South,180,5.4,5.4,65,0.00,,,0.00,VWS V14.01,2017-12-12 15:01:00,
2017-12-12 10:06:00,35.2,25.0,29.72,SSW,202,4.3,6.0,66,0.00,,,0.00,VWS V14.01,2017-12-12 15:06:00,
2017-12-12 10:11:00,34.9,24.7,29.72,SSW,202,0.0,2.0,66,0.00,,,0.00,VWS V14.01,2017-12-12 15:11:00,
2017-12-12 10:16:00,34.9,24.7,29.75,East,90,1.6,5.6,66,0.00,,,0.00,VWS V14.01,2017-12-12 15:16:00,
2017-12-12 10:26:00,34.9,24.7,29.75,SSE,158,0.0,0.0,66,0.00,,,0.00,VWS V14.01,2017-12-12 15:26:00,
2017-12-12 10:31:00,34.9,24.3,29.72,ENE,68,0.0,0.0,65,0.00,,,0.00,VWS V14.01,2017-12-12 15:31:00,
2017-12-12 10:36:00,34.9,24.3,29.72,East,90,2.9,6.7,65,0.00,,,0.00,VWS V14.01,2017-12-12 15:36:00,
2017-12-12 10:41:00,34.9,24.3,29.72,South,180,1.1,1.6,65,0.00,,,0.00,VWS V14.01,2017-12-12 15:41:00,
2017-12-12 10:46:00,34.9,24.3,29.75,South,180,0.0,0.0,65,0.00,,,0.00,VWS V14.01,2017-12-12 15:46:00,
2017-12-12 10:51:00,34.7,24.1,29.75,South,180,0.0,4.0,65,0.00,,,0.00,VWS V14.01,2017-12-12 15:51:00,
2017-12-12 10:56:00,34.5,24.4,29.75,East,90,0.0,0.0,66,0.00,,,0.00,VWS V14.01,2017-12-12 15:56:00,
2017-12-12 11:01:00,34.5,24.4,29.72,East,90,0.0,3.1,66,0.00,,,0.00,VWS V14.01,2017-12-12 16:01:00,
2017-12-12 11:06:00,34.5,24.4,29.72,SSE,158,0.0,0.0,66,0.00,,,0.00,VWS V14.01,2017-12-12 16:06:00,
2017-12-12 11:11:00,34.5,24.4,29.72,SSE,158,0.0,0.0,66,0.00,,,0.00,VWS V14.01,2017-12-12 16:11:00,
2017-12-12 11:16:00,34.5,24.7,29.72,SE,135,0.0,0.0,67,0.00,,,0.00,VWS V14.01,2017-12-12 16:16:00,
2017-12-12 11:21:00,34.2,24.4,29.75,ENE,68,0.0,0.0,67,0.00,,,0.00,VWS V14.01,2017-12-12 16:21:00,
2017-12-12 11:26:00,34.2,24.4,29.75,ESE,112,0.0,0.0,67,0.00,,,0.00,VWS V14.01,2017-12-12 16:26:00,
2017-12-12 11:36:00,33.8,24.4,29.75,East,90,3.1,5.8,68,0.00,,,0.00,VWS V14.01,2017-12-12 16:36:00,
2017-12-12 11:41:00,33.4,24.0,29.75,SSE,158,0.0,0.0,68,0.00,,,0.00,VWS V14.01,2017-12-12 16:41:00,
2017-12-12 11:46:00,33.4,24.4,29.75,NNW,338,0.0,0.0,69,0.00,,,0.00,VWS V14.01,2017-12-12 16:46:00,
2017-12-12 11:51:00,33.3,24.2,29.75,South,180,0.0,0.0,69,0.00,,,0.00,VWS V14.01,2017-12-12 16:51:00,
2017-12-12 11:56:00,32.9,24.2,29.75,South,180,0.0,8.1,70,0.00,,,0.00,VWS V14.01,2017-12-12 16:56:00,
2017-12-12 12:01:00,33.1,24.0,29.72,ESE,112,2.0,6.9,69,0.00,,,0.00,VWS V14.01,2017-12-12 17:01:00,
2017-12-12 12:06:00,33.3,23.5,29.72,SE,135,4.9,9.8,67,0.00,,,0.00,VWS V14.01,2017-12-12 17:06:00,
2017-12-12 12:11:00,33.3,23.5,29.72,SSE,158,0.0,0.0,67,0.00,,,0.00,VWS V14.01,2017-12-12 17:11:00,
2017-12-12 12:16:00,33.4,23.7,29.72,ENE,68,0.0,0.0,67,0.00,,,0.00,VWS V14.01,2017-12-12 17:16:00,
2017-12-12 12:21:00,33.8,24.0,29.72,ESE,112,0.0,0.0,67,0.00,,,0.00,VWS V14.01,2017-12-12 17:21:00,
2017-12-12 12:26:00,33.4,24.0,29.72,SSE,158,3.1,3.6,68,0.00,,,0.00,VWS V14.01,2017-12-12 17:26:00,
2017-12-12 12:36:00,32.4,23.3,29.75,ESE,112,0.0,6.9,69,0.00,,,0.00,VWS V14.01,2017-12-12 17:36:00,
2017-12-12 12:46:00,31.8,22.8,29.72,SE,135,0.0,2.9,69,0.00,,,0.00,VWS V14.01,2017-12-12 17:46:00,
2017-12-12 12:51:00,31.8,22.8,29.72,SSE,158,0.0,0.0,69,0.00,,,0.00,VWS V14.01,2017-12-12 17:51:00,
2017-12-12 12:56:00,31.6,22.3,29.72,NNE,22,0.0,12.5,68,0.00,,,0.00,VWS V14.01,2017-12-12 17:56:00,
2017-12-12 13:01:00,31.5,22.5,29.72,SW,225,1.3,4.3,69,0.00,,,0.00,VWS V14.01,2017-12-12 18:01:00,
2017-12-12 13:06:00,31.3,22.3,29.72,NE,45,0.0,4.3,69,0.00,,,0.00,VWS V14.01,2017-12-12 18:06:00,
2017-12-12 13:11:00,31.1,21.8,29.72,SSE,158,0.0,0.0,68,0.00,,,0.00,VWS V14.01,2017-12-12 18:11:00,
2017-12-12 13:16:00,31.1,22.1,29.72,East,90,0.0,0.0,69,0.00,,,0.00,VWS V14.01,2017-12-12 18:16:00,
2017-12-12 13:21:00,31.1,22.1,29.72,East,90,0.0,0.0,69,0.00,,,0.00,VWS V14.01,2017-12-12 18:21:00,
2017-12-12 13:26:00,31.6,23.0,29.72,ESE,112,0.0,0.0,70,0.00,,,0.00,VWS V14.01,2017-12-12 18:26:00,
2017-12-12 13:31:00,31.8,22.8,29.72,SSE,158,0.0,0.0,69,0.00,,,0.00,VWS V14.01,2017-12-12 18:31:00,
2017-12-12 13:36:00,31.3,22.3,29.72,South,180,0.0,0.0,69,0.00,,,0.00,VWS V14.01,2017-12-12 18:36:00,
2017-12-12 13:41:00,30.4,21.4,29.72,South,180,0.0,5.8,69,0.00,,,0.00,VWS V14.01,2017-12-12 18:41:00,
2017-12-12 13:46:00,29.5,21.6,29.75,South,180,0.0,0.0,72,0.00,,,0.00,VWS V14.01,2017-12-12 18:46:00,
2017-12-12 13:56:00,28.6,22.9,29.75,South,180,7.8,7.8,79,0.00,,,0.00,VWS V14.01,2017-12-12 18:56:00,
2017-12-12 14:01:00,28.6,22.9,29.75,East,90,0.0,0.0,79,0.00,,,0.00,VWS V14.01,2017-12-12 19:01:00,
2017-12-12 14:06:00,28.2,22.2,29.75,NW,315,5.4,5.4,78,0.00,,,0.00,VWS V14.01,2017-12-12 19:06:00,
2017-12-12 14:11:00,27.9,21.0,29.75,South,180,8.5,8.5,75,0.00,,,0.00,VWS V14.01,2017-12-12 19:11:00,
2017-12-12 14:16:00,27.7,20.5,29.75,ESE,112,0.0,1.1,74,0.00,,,0.00,VWS V14.01,2017-12-12 19:16:00,
2017-12-12 14:21:00,27.9,20.3,29.75,WSW,248,3.8,3.8,73,0.00,,,0.00,VWS V14.01,2017-12-12 19:21:00,
2017-12-12 14:26:00,27.5,20.0,29.75,East,90,0.0,4.0,73,0.00,,,0.00,VWS V14.01,2017-12-12 19:26:00,
2017-12-12 14:31:00,27.5,20.0,29.72,SSE,158,0.0,0.9,73,0.00,,,0.00,VWS V14.01,2017-12-12 19:31:00,
2017-12-12 14:41:00,26.8,19.3,29.72,East,90,0.0,9.4,73,0.00,,,0.00,VWS V14.01,2017-12-12 19:41:00,
2017-12-12 14:46:00,26.8,19.3,29.75,SSE,158,0.0,0.0,73,0.00,,,0.00,VWS V14.01,2017-12-12 19:46:00,
2017-12-12 14:51:00,26.8,19.3,29.75,SE,135,0.0,0.0,73,0.00,,,0.00,VWS V14.01,2017-12-12 19:51:00,
2017-12-12 14:56:00,27.0,19.5,29.75,South,180,5.6,5.6,73,0.00,,,0.00,VWS V14.01,2017-12-12 19:56:00,
2017-12-12 15:01:00,26.8,19.3,29.75,SSE,158,4.9,11.0,73,0.00,,,0.00,VWS V14.01,2017-12-12 20:01:00,
2017-12-12 15:06:00,26.6,19.1,29.75,WSW,248,0.0,0.0,73,0.00,,,0.00,VWS V14.01,2017-12-12 20:06:00,
2017-12-12 15:11:00,26.6,19.1,29.75,SSE,158,0.0,3.8,73,0.00,,,0.00,VWS V14.01,2017-12-12 20:11:00,
2017-12-12 15:16:00,26.8,19.0,29.75,East,90,0.0,0.0,72,0.00,,,0.00,VWS V14.01,2017-12-12 20:16:00,
2017-12-12 15:21:00,26.8,18.3,29.75,ENE,68,0.9,8.7,70,0.00,,,0.00,VWS V14.01,2017-12-12 20:21:00,
2017-12-12 15:26:00,26.8,18.3,29.75,SSE,158,0.0,0.0,70,0.00,,,0.00,VWS V14.01,2017-12-12 20:26:00,
2017-12-12 15:36:00,26.4,18.0,29.75,SSW,202,0.0,4.3,70,0.00,,,0.00,VWS V14.01,2017-12-12 20:36:00,
2017-12-12 15:41:00,26.6,18.1,29.75,SSW,202,2.9,6.0,70,0.00,,,0.00,VWS V14.01,2017-12-12 20:41:00,
2017-12-12 15:51:00,26.1,17.0,29.78,SE,135,2.7,2.7,68,0.00,,,0.00,VWS V14.01,2017-12-12 20:51:00,
2017-12-12 15:56:00,25.9,17.1,29.78,East,90,0.0,8.1,69,0.00,,,0.00,VWS V14.01,2017-12-12 20:56:00,
2017-12-12 16:06:00,25.7,17.6,29.81,East,90,0.0,0.0,71,0.00,,,0.00,VWS V14.01,2017-12-12 21:06:00,
2017-12-12 16:11:00,25.7,17.6,29.81,ENE,68,9.0,9.0,71,0.00,,,0.00,VWS V14.01,2017-12-12 21:11:00,
2017-12-12 16:16:00,25.5,17.4,29.78,South,180,0.0,0.0,71,0.00,,,0.00,VWS V14.01,2017-12-12 21:16:00,
2017-12-12 16:21:00,25.9,17.1,29.78,SE,135,0.0,5.4,69,0.00,,,0.00,VWS V14.01,2017-12-12 21:21:00,
2017-12-12 16:26:00,26.1,16.6,29.78,South,180,0.0,0.0,67,0.00,,,0.00,VWS V14.01,2017-12-12 21:26:00,
2017-12-12 16:36:00,25.2,16.8,29.81,NE,45,7.8,7.8,70,0.00,,,0.00,VWS V14.01,2017-12-12 21:36:00,
2017-12-12 16:41:00,24.6,16.6,29.81,South,180,0.0,0.0,71,0.00,,,0.00,VWS V14.01,2017-12-12 21:41:00,
2017-12-12 16:51:00,23.2,16.5,29.84,East,90,0.0,0.0,75,0.00,,,0.00,VWS V14.01,2017-12-12 21:51:00,
2017-12-12 17:01:00,23.0,16.6,29.81,East,90,0.0,0.0,76,0.00,,,0.00,VWS V14.01,2017-12-12 22:01:00,
2017-12-12 17:06:00,23.0,16.6,29.81,ENE,68,0.0,0.0,76,0.00,,,0.00,VWS V14.01,2017-12-12 22:06:00,
2017-12-12 17:11:00,23.0,16.6,29.81,South,180,0.0,0.0,76,0.00,,,0.00,VWS V14.01,2017-12-12 22:11:00,
2017-12-12 17:16:00,23.0,16.6,29.81,SE,135,0.0,2.5,76,0.00,,,0.00,VWS V14.01,2017-12-12 22:16:00,
2017-12-12 17:21:00,23.0,16.6,29.81,East,90,0.0,0.0,76,0.00,,,0.00,VWS V14.01,2017-12-12 22:21:00,
2017-12-12 17:31:00,22.3,16.5,29.81,ENE,68,3.6,13.2,78,0.00,,,0.00,VWS V14.01,2017-12-12 22:31:00,
2017-12-12 17:36:00,22.1,15.4,29.81,NE,45,0.0,0.0,75,0.00,,,0.00,VWS V14.01,2017-12-12 22:36:00,
2017-12-12 17:41:00,22.1,14.1,29.81,East,90,0.0,4.7,71,0.00,,,0.00,VWS V14.01,2017-12-12 22:41:00,
2017-12-12 17:46:00,21.9,13.3,29.84,SE,135,12.5,12.5,69,0.00,,,0.00,VWS V14.01,2017-12-12 22:46:00,
2017-12-12 17:51:00,21.9,12.3,29.84,NE,45,0.0,2.2,66,0.00,,,0.00,VWS V14.01,2017-12-12 22:51:00,
2017-12-12 17:56:00,21.7,12.5,29.84,SSE,158,0.0,1.6,67,0.00,,,0.00,VWS V14.01,2017-12-12 22:56:00,
2017-12-12 18:26:00,21.7,11.1,29.84,ESE,112,0.0,4.0,63,0.00,,,0.00,VWS V14.01,2017-12-12 23:26:00,
2017-12-12 18:31:00,21.7,11.1,29.84,NE,45,0.0,4.5,63,0.00,,,0.00,VWS V14.01,2017-12-12 23:31:00,
2017-12-12 18:36:00,21.6,10.6,29.84,South,180,0.0,7.4,62,0.00,,,0.00,VWS V14.01,2017-12-12 23:36:00,
2017-12-12 18:46:00,21.2,9.9,29.87,East,90,0.0,0.0,61,0.00,,,0.00,VWS V14.01,2017-12-12 23:46:00,
2017-12-12 18:51:00,21.4,10.0,29.87,East,90,0.0,0.0,61,0.00,,,0.00,VWS V14.01,2017-12-12 23:51:00,
2017-12-12 18:56:00,21.6,10.2,29.87,East,90,0.0,0.0,61,0.00,,,0.00,VWS V14.01,2017-12-12 23:56:00,
2017-12-12 19:01:00,21.6,10.2,29.87,SE,135,0.0,0.0,61,0.00,,,0.00,VWS V14.01,2017-12-13 00:01:00,
2017-12-12 19:06:00,21.4,10.0,29.87,ENE,68,0.0,0.0,61,0.00,,,0.00,VWS V14.01,2017-12-13 00:06:00,
2017-12-12 19:11:00,21.4,10.4,29.87,East,90,0.0,8.5,62,0.00,,,0.00,VWS V14.01,2017-12-13 00:11:00,
2017-12-12 19:16:00,21.0,12.8,29.87,ESE,112,0.0,0.0,70,0.00,,,0.00,VWS V14.01,2017-12-13 00:16:00,
2017-12-12 19:31:00,20.5,11.6,29.87,SE,135,6.0,6.5,68,0.00,,,0.00,VWS V14.01,2017-12-13 00:31:00,
2017-12-12 19:36:00,20.5,11.3,29.87,ENE,68,0.0,0.0,67,0.00,,,0.00,VWS V14.01,2017-12-13 00:36:00,
2017-12-12 19:41:00,20.5,11.3,29.87,East,90,0.0,5.6,67,0.00,,,0.00,VWS V14.01,2017-12-13 00:41:00,
2017-12-12 19:46:00,20.5,11.3,29.84,NW,315,0.0,0.0,67,0.00,,,0.00,VWS V14.01,2017-12-13 00:46:00,
2017-12-12 19:56:00,20.5,11.3,29.87,SE,135,2.2,2.2,67,0.00,,,0.00,VWS V14.01,2017-12-13 00:56:00,
2017-12-12 20:01:00,20.5,10.9,29.90,SSE,158,0.0,0.0,66,0.00,,,0.00,VWS V14.01,2017-12-13 01:01:00,
2017-12-12 20:06:00,20.3,10.8,29.90,ESE,112,0.0,2.7,66,0.00,,,0.00,VWS V14.01,2017-12-13 01:06:00,
2017-12-12 20:11:00,20.3,10.4,29.90,South,180,0.0,0.0,65,0.00,,,0.00,VWS V14.01,2017-12-13 01:11:00,
2017-12-12 20:16:00,20.3,10.4,29.87,East,90,5.8,9.8,65,0.00,,,0.00,VWS V14.01,2017-12-13 01:16:00,
2017-12-12 20:21:00,20.3,10.1,29.87,SE,135,0.0,9.8,64,0.00,,,0.00,VWS V14.01,2017-12-13 01:21:00,
2017-12-12 20:26:00,20.3,10.1,29.87,SE,135,0.0,0.0,64,0.00,,,0.00,VWS V14.01,2017-12-13 01:26:00,
2017-12-12 20:36:00,20.3,9.7,29.90,East,90,0.0,9.6,63,0.00,,,0.00,VWS V14.01,2017-12-13 01:36:00,
2017-12-12 20:41:00,20.3,9.4,29.90,ENE,68,0.0,5.4,62,0.00,,,0.00,VWS V14.01,2017-12-13 01:41:00,
2017-12-12 20:46:00,20.3,9.4,29.90,SE,135,0.0,4.0,62,0.00,,,0.00,VWS V14.01,2017-12-13 01:46:00,
2017-12-12 20:51:00,20.3,9.4,29.90,NE,45,0.0,0.0,62,0.00,,,0.00,VWS V14.01,2017-12-13 01:51:00,
2017-12-12 20:56:00,20.3,9.4,29.90,ESE,112,0.0,5.4,62,0.00,,,0.00,VWS V14.01,2017-12-13 01:56:00,
2017-12-12 21:11:00,20.3,9.0,29.87,East,90,0.0,0.0,61,0.00,,,0.00,VWS V14.01,2017-12-13 02:11:00,